Kingwood, West Virginia
Current Conditions -  °F | °C
As of 10:53 PM on Saturday 25 Oct 2014 (Local Time) from KMGW Reporting Station
Few Clouds Few Clouds  
Wind Chill: 60°   Ceiling: Unl
Heat Index: 60°   Visibility: 10mi
Dew Point: 50°   Wind: 6mph
Humidity: 69%   Direction: 220°SW
Pressure: 29.82"   Gusts: NA
Location:  39.47°N, 79.68°W
Report Text: KMGW 260253Z 22005KT 10SM FEW065 16/10 A2982 RMK AO2 SLP097 T01560100 55002
Loading
Personal Weather Stations






























Interactive Weather Map
Tropical Storm Tracking
New forecast layout! Learn more

10-Day Weather Forecast

Advertisements
Track Severe Weather on mobile